Latest Weather Observations for Woomera

IDS60801

Issued at 11:05 pm CDT Friday 31 October 2014 (issued every 30 minutes, with the page automatically refreshed every 10 minutes)

About weather observations | Map of weather stations | Latest weather observations for SA | Other Formats
Station Details ID: 016001 Name: WOOMERA AERODROME Lat: -31.16 Lon: 136.81 Height: 166.6 m
Data from the previous 72 hours. | See also: Recent months at Woomera
Date/Time
CDT
Temp
°C
App
Temp
°C
Dew
Point
Rel
Hum
%
Delta-T
°C
Wind Press
QNH
hPa
Press
MSL
hPa
Rain
since 9 am
mm
Dir
 
Spd
km/h
Gust
km/h
Spd
kts
Gust
kts
31/11:00pm 21.3 17.2 13.8 62 4.4 SSW 28 35 15 19 1007.8 - 6.6
31/10:30pm 21.5 17.7 13.6 60 4.6 S 26 32 14 17 1006.8 - 6.6
31/10:00pm 22.2 19.2 16.7 71 3.4 W 28 39 15 21 1007.4 - 6.6
31/09:30pm 22.6 20.7 15.7 65 4.2 W 20 26 11 14 - - 6.6
31/09:00pm 24.1 23.4 13.2 50 6.4 WNW 9 24 5 13 1003.7 1003.3 6.6
31/08:38pm 25.1 21.8 11.7 43 7.7 W 20 35 11 19 1003.8 - 6.6
31/08:34pm 24.0 17.4 12.6 49 6.6 WSW 39 57 21 31 1004.0 - 6.6
31/08:30pm 22.9 16.2 14.7 60 4.9 WSW 43 56 23 30 1004.6 - 6.6
31/08:18pm 22.7 18.2 15.4 63 4.4 W 33 54 18 29 1004.9 - 6.4
31/08:10pm 22.5 19.2 16.1 67 3.9 W 28 35 15 19 1005.3 - 6.4
31/08:00pm 22.4 18.3 16.0 67 3.9 WSW 32 44 17 24 1004.6 - 6.2
31/07:50pm 21.4 17.7 16.9 75 2.8 WSW 32 39 17 21 1004.2 - 5.6
31/07:45pm 21.4 15.9 16.7 74 2.9 SSW 41 56 22 30 1002.7 - 4.8
31/07:30pm 22.3 16.0 16.1 68 3.8 SSW 44 57 24 31 1002.5 - 4.4
31/07:21pm 22.3 14.8 15.9 67 3.9 SSW 50 61 27 33 1002.0 - 4.4
31/07:00pm 22.5 14.1 17.2 72 3.3 SW 57 76 31 41 1003.2 - 4.4
31/06:57pm 22.6 14.2 17.1 71 3.4 WSW 57 76 31 41 1003.6 - 4.2
31/06:51pm 22.1 14.0 17.8 76 2.7 SW 57 76 31 41 1004.4 - 4.2
31/06:50pm 22.1 14.1 18.0 77 2.6 SW 57 72 31 39 1004.4 - 4.2
31/06:30pm 20.2 10.8 19.9 98 0.2 WSW 69 95 37 51 1002.3 - 3.8
31/06:26pm 20.4 10.5 20.2 99 0.1 WSW 72 95 39 51 1002.2 - 2.8
31/06:23pm 20.8 6.1 19.7 93 0.7 WSW 96 124 52 67 1001.4 - 0.8
31/06:21pm 29.2 11.7 11.8 34 10.2 W 95 120 51 65 1000.8 - 0.0
31/06:20pm 30.4 17.3 10.0 28 11.6 W 69 120 37 65 1000.8 - 0.0
31/06:18pm 33.1 21.7 7.4 20 14.2 W 57 76 31 41 1000.7 - 0.0
31/06:17pm 35.2 27.8 4.2 14 16.5 WNW 32 76 17 41 1000.5 - 0.0
31/06:16pm 35.9 29.0 2.8 12 17.3 WNW 28 56 15 30 1000.0 - 0.0
31/06:00pm 36.0 28.2 1.8 11 17.7 NNW 32 44 17 24 999.7 999.2 0.0
31/05:30pm 37.1 29.9 3.0 12 18.0 NW 30 41 16 22 999.9 - 0.0
31/05:00pm 36.3 30.9 4.5 14 17.1 NW 22 32 12 17 1000.4 - 0.0
31/04:30pm 36.8 29.8 4.2 13 17.5 NW 30 43 16 23 1000.8 - 0.0
31/04:00pm 37.0 30.4 4.3 13 17.6 NW 28 37 15 20 1001.2 - 0.0
31/03:30pm 37.8 30.0 4.7 13 18.0 NW 35 44 19 24 1001.9 - 0.0
31/03:14pm 35.3 27.2 5.1 15 16.3 NNW 37 46 20 25 1002.3 - 0.0
31/03:05pm 36.4 28.6 4.7 14 17.1 WNW 35 54 19 29 1002.4 - 0.0
31/03:00pm 36.5 27.7 3.4 12 17.6 NW 39 54 21 29 1002.6 1002.2 0.0
31/02:30pm 35.5 29.6 4.1 14 16.7 WNW 24 37 13 20 1003.2 - 0.0
31/02:00pm 37.1 29.5 2.9 12 18.1 NW 32 52 17 28 1003.6 - 0.0
31/01:47pm 36.6 29.1 3.6 13 17.5 WNW 32 50 17 27 1003.8 - 0.0
31/01:30pm 35.3 27.2 3.2 13 16.8 WNW 35 46 19 25 1004.1 - 0.0
31/01:00pm 35.2 27.7 3.7 14 16.6 NW 32 44 17 24 1004.6 - 0.0
31/12:58pm 35.8 28.8 4.0 14 17.0 NW 30 44 16 24 1004.6 - 0.0
31/12:30pm 34.3 29.8 5.9 17 15.5 WNW 19 24 10 13 1005.3 - 0.0
31/12:00pm 34.0 27.7 5.6 17 15.4 NNW 28 37 15 20 1005.7 1005.2 0.0
31/11:30am 33.5 27.8 6.6 18 14.8 NW 26 35 14 19 1006.2 - 0.0
31/11:00am 33.0 27.2 7.8 21 14.0 NW 28 37 15 20 1006.6 - 0.0
31/10:30am 32.4 27.2 7.2 21 13.9 NW 24 39 13 21 1006.7 - 0.0
31/10:00am 30.8 27.5 8.1 24 12.6 NW 15 22 8 12 1006.7 - 0.0
31/09:30am 30.3 26.3 8.1 25 12.3 NW 19 26 10 14 1006.8 - 0.0
31/09:00am 28.7 24.7 8.2 27 11.3 WNW 19 22 10 12 1006.9 1006.4 0.0
31/08:30am 27.7 23.7 8.2 29 10.7 NW 19 22 10 12 1007.0 - 0.0
31/08:00am 26.2 22.2 5.0 25 10.9 N 15 19 8 10 1007.2 - 0.0
31/07:30am 25.0 20.5 4.4 26 10.4 NNW 17 19 9 10 1007.1 - 0.0
31/07:00am 23.9 18.2 2.7 25 10.3 NW 22 32 12 17 1007.1 - 0.0
31/06:30am 23.5 16.8 -4.4 15 11.8 NNW 22 26 12 14 1007.0 - 0.0
31/06:00am 24.1 18.1 -6.4 12 12.5 N 17 19 9 10 1006.7 1006.2 0.0
31/05:30am 25.1 19.1 -6.2 12 12.9 N 17 19 9 10 1006.5 - 0.0
31/05:00am 25.2 18.8 -7.1 11 13.1 N 19 20 10 11 1006.7 - 0.0
31/04:30am 25.8 19.8 -7.0 11 13.5 N 17 20 9 11 1006.9 - 0.0
31/04:00am 25.2 20.0 -6.0 12 13.0 N 13 15 7 8 1007.1 - 0.0
31/03:30am 26.0 20.8 -6.4 11 13.5 N 13 17 7 9 1007.1 - 0.0
31/03:00am 26.7 21.5 -6.5 11 13.9 N 13 19 7 10 1007.4 1007.0 0.0
31/02:30am 26.3 20.7 -6.0 11 13.6 N 15 17 8 9 1007.8 - 0.0
31/02:00am 26.6 21.0 -6.2 11 13.8 N 15 17 8 9 1008.2 - 0.0
31/01:30am 24.6 20.0 -4.0 14 12.3 NNE 11 13 6 7 1008.7 - 0.0
31/01:00am 24.5 20.1 -2.8 16 12.0 E 11 13 6 7 1009.2 - 0.0
31/12:30am 24.0 19.0 -4.6 14 12.1 E 13 13 7 7 1009.2 - 0.0
31/12:00am 25.5 20.5 -4.1 14 12.8 ESE 13 13 7 7 1009.8 1009.4 0.0
 
Date/Time
CDT
Temp
°C
App
Temp
°C
Dew
Point
Rel
Hum
%
Delta-T
°C
Wind Press
QNH
hPa
Press
MSL
hPa
Rain
since 9 am
mm
Dir
 
Spd
km/h
Gust
km/h
Spd
kts
Gust
kts
30/11:30pm 25.4 20.3 -4.9 13 12.9 ESE 13 15 7 8 1010.0 - 0.0
30/11:00pm 26.4 21.0 -4.7 12 13.4 ESE 15 17 8 9 1010.3 - 0.0
30/10:30pm 26.9 22.2 -4.8 12 13.7 ESE 11 15 6 8 1010.5 - 0.0
30/10:00pm 28.1 23.5 -3.9 12 14.2 ESE 11 13 6 7 1010.3 - 0.0
30/09:30pm 28.9 23.8 -5.3 10 14.9 ESE 13 15 7 8 1010.2 - 0.0
30/09:00pm 29.7 25.1 -4.4 10 15.2 SE 11 13 6 7 1010.0 1009.6 0.0
30/08:30pm 30.3 26.1 -3.7 11 15.4 SSE 9 11 5 6 1009.8 - 0.0
30/08:00pm 31.1 26.0 -5.0 9 16.1 SE 13 17 7 9 1009.6 - 0.0
30/07:30pm 32.1 28.8 -1.4 11 16.0 WNW 6 7 3 4 1009.5 - 0.0
30/07:00pm 32.4 27.9 -3.0 10 16.5 NNE 11 15 6 8 1009.6 - 0.0
30/06:30pm 33.5 27.8 -7.0 7 17.8 N 15 20 8 11 1009.7 - 0.0
30/06:00pm 33.5 29.1 -6.3 7 17.7 S 9 15 5 8 1009.9 1009.5 0.0
30/05:30pm 33.7 30.2 -2.7 9 17.2 W 6 11 3 6 1010.0 - 0.0
30/05:00pm 33.6 26.9 -8.0 6 18.0 WSW 20 32 11 17 1010.3 - 0.0
30/04:30pm 34.8 29.4 -8.8 6 18.8 SW 13 20 7 11 1010.4 - 0.0
30/04:00pm 34.2 28.8 -8.4 6 18.4 NW 13 33 7 18 1010.7 - 0.0
30/03:30pm 34.2 29.4 -5.6 7 18.0 NW 11 20 6 11 1011.0 - 0.0
30/03:00pm 34.2 29.9 1.1 12 16.7 SSW 13 20 7 11 1011.5 1011.0 0.0
30/02:30pm 33.5 28.2 -7.1 7 17.8 NNW 13 22 7 12 1012.0 - 0.0
30/02:07pm 34.0 24.9 -10.2 5 18.5 WNW 32 52 17 28 1012.3 - 0.0
30/02:00pm 33.5 27.9 -6.4 7 17.7 NNW 15 20 8 11 1012.5 - 0.0
30/01:30pm 33.7 27.2 -8.5 6 18.1 W 19 22 10 12 1012.9 - 0.0
30/01:00pm 33.0 28.2 -5.8 8 17.3 NW 11 17 6 9 1013.4 - 0.0
30/12:30pm 32.0 28.0 -2.3 11 16.1 E 9 13 5 7 1013.9 - 0.0
30/12:00pm 31.3 27.2 -3.4 10 15.9 N 9 20 5 11 1014.4 1014.0 0.0
30/11:30am 30.5 26.2 -1.7 12 15.1 ENE 11 17 6 9 1014.8 - 0.0
30/11:00am 29.5 25.8 -0.3 14 14.2 ESE 9 15 5 8 1015.1 - 0.0
30/10:30am 28.1 24.2 3.6 20 12.4 ESE 13 17 7 9 1015.4 - 0.0
30/10:00am 26.6 22.1 4.3 24 11.3 ESE 17 22 9 12 1015.5 - 0.0
30/09:30am 25.0 21.4 6.7 31 9.6 ESE 15 20 8 11 1015.5 - 0.0
30/09:00am 22.5 19.2 8.2 40 7.6 SE 15 17 8 9 1015.5 1015.1 0.0
30/08:30am 20.5 17.3 8.6 46 6.3 SE 15 19 8 10 1015.5 - 0.0
30/08:00am 19.4 16.9 8.3 48 5.8 SSE 11 15 6 8 1015.6 - 0.0
30/07:30am 19.0 15.7 8.2 49 5.6 SSE 15 19 8 10 1015.3 - 0.0
30/07:00am 19.0 15.6 7.7 48 5.8 SSE 15 20 8 11 1014.9 - 0.0
30/06:30am 19.0 16.3 7.5 47 5.9 SSE 11 17 6 9 1014.8 - 0.0
30/06:00am 19.2 16.4 7.0 45 6.2 SSE 11 13 6 7 1014.4 1014.0 0.0
30/05:30am 19.8 17.3 6.6 42 6.7 ESE 9 11 5 6 1014.3 - 0.0
30/05:00am 20.3 16.6 6.5 40 7.0 SE 15 17 8 9 1014.0 - 0.0
30/04:30am 20.8 16.1 6.2 38 7.4 SE 20 24 11 13 1014.1 - 0.0
30/04:00am 21.1 16.3 5.8 37 7.7 SE 20 26 11 14 1014.1 - 0.0
30/03:30am 21.0 16.4 6.5 39 7.4 ESE 20 26 11 14 1014.2 - 0.0
30/03:00am 21.2 15.8 6.2 37 7.6 SE 24 32 13 17 1014.1 1013.7 0.0
30/02:30am 21.1 16.2 7.1 40 7.2 SE 22 26 12 14 1014.5 - 0.0
30/02:00am 21.3 15.6 6.9 39 7.4 SE 26 35 14 19 1014.7 - 0.0
30/01:30am 21.9 16.6 5.1 33 8.4 SE 22 30 12 16 1015.2 - 0.0
30/01:00am 22.7 17.1 -0.2 22 10.4 S 19 24 10 13 1015.5 - 0.0
30/12:30am 23.5 17.3 -0.5 20 10.9 S 22 30 12 16 1015.8 - 0.0
30/12:00am 23.9 19.5 -2.6 17 11.6 SSE 11 11 6 6 1015.5 1015.1 0.0
 
Date/Time
CDT
Temp
°C
App
Temp
°C
Dew
Point
Rel
Hum
%
Delta-T
°C
Wind Press
QNH
hPa
Press
MSL
hPa
Rain
since 9 am
mm
Dir
 
Spd
km/h
Gust
km/h
Spd
kts
Gust
kts
29/11:30pm 24.3 19.9 -2.5 17 11.8 SSE 11 13 6 7 1015.6 - 0.0
29/11:00pm 24.7 20.0 -5.0 13 12.5 SSE 11 13 6 7 1015.8 - 0.0
29/10:30pm 24.7 19.7 -4.4 14 12.4 S 13 13 7 7 1016.0 - 0.0
29/10:00pm 25.2 19.8 -4.6 13 12.7 S 15 17 8 9 1016.1 - 0.0
29/09:30pm 25.1 19.9 -6.0 12 12.9 SSW 13 15 7 8 1015.9 - 0.0
29/09:00pm 26.3 20.7 -6.9 10 13.7 S 15 17 8 9 1015.7 1015.3 0.0
29/08:30pm 27.7 21.7 -7.1 10 14.5 SSW 17 20 9 11 1015.3 - 0.0
29/08:00pm 28.8 21.5 -5.8 10 14.9 SSW 24 30 13 16 1015.1 - 0.0
29/07:30pm 29.9 23.4 -6.3 9 15.6 SSW 20 28 11 15 1014.7 - 0.0
29/07:00pm 30.6 25.0 -6.3 9 16.0 SW 15 20 8 11 1014.5 - 0.0
29/06:30pm 31.1 26.4 -4.6 9 16.0 S 11 15 6 8 1014.5 - 0.0
29/06:00pm 31.5 25.5 -6.9 8 16.6 SW 17 22 9 12 1014.4 1014.0 0.0
29/05:30pm 32.2 27.4 -6.2 8 16.9 SW 11 17 6 9 1014.5 - 0.0
29/05:00pm 31.7 26.8 -6.8 8 16.7 S 11 22 6 12 1014.4 - 0.0
29/04:30pm 31.5 26.7 -5.6 9 16.4 ESE 11 17 6 9 1014.6 - 0.0
29/04:00pm 32.4 28.0 -6.1 8 17.0 WNW 9 13 5 7 1014.9 - 0.0
29/03:30pm 31.4 27.9 -3.1 10 15.9 ESE 6 9 3 5 1015.3 - 0.0
29/03:00pm 30.7 26.8 -4.3 10 15.7 ENE 7 13 4 7 1015.7 1015.3 0.0
29/02:30pm 31.6 26.6 -4.2 9 16.2 N 13 22 7 12 1016.1 - 0.0
29/02:00pm 31.0 26.4 -4.4 10 15.9 N 11 19 6 10 1016.4 - 0.0
29/01:30pm 30.3 26.2 -3.4 11 15.3 NNW 9 20 5 11 1017.0 - 0.0
29/01:00pm 29.1 25.1 -2.3 13 14.4 E 9 15 5 8 1017.4 - 0.0
29/12:30pm 28.4 24.1 -1.8 14 13.9 NE 11 24 6 13 1018.0 - 0.0
29/12:00pm 27.5 23.3 -1.0 15 13.2 N 11 20 6 11 1018.5 1018.1 0.0
29/11:30am 26.9 23.0 1.3 19 12.3 N 11 19 6 10 1019.0 - 0.0
29/11:00am 26.3 22.8 1.2 19 12.0 N 9 17 5 9 1019.3 - 0.0
29/10:30am 25.2 21.6 2.9 23 10.9 NE 11 17 6 9 1019.3 - 0.0
29/10:00am 23.8 19.4 4.9 29 9.5 E 17 20 9 11 1019.5 - 0.0
29/09:30am 22.1 18.9 7.0 37 7.8 E 13 19 7 10 1019.7 - 0.0
29/09:00am 20.2 17.2 7.9 45 6.4 ESE 13 17 7 9 1019.7 1019.3 0.0
29/08:30am 18.2 15.0 8.3 52 5.1 SE 15 17 8 9 1019.8 - 0.0
29/08:00am 16.1 12.5 8.5 60 3.9 SE 17 19 9 10 1019.6 - 0.0
29/07:30am 15.0 11.7 8.1 63 3.5 SE 15 19 8 10 1019.3 - 0.0
29/07:00am 14.0 10.7 8.0 67 3.0 SE 15 19 8 10 1019.2 - 0.0
29/06:30am 13.2 10.2 7.7 69 2.7 SSE 13 15 7 8 1019.1 - 0.0
29/06:00am 13.6 10.2 7.5 66 3.0 SE 15 17 8 9 1018.8 1018.4 0.0
29/05:30am 14.2 10.1 7.8 65 3.2 SSE 19 22 10 12 1018.6 - 0.0
29/05:00am 14.4 10.2 7.3 62 3.5 SSE 19 22 10 12 1018.6 - 0.0
29/04:30am 14.7 10.8 7.0 60 3.8 SSE 17 20 9 11 1018.3 - 0.0
29/04:00am 15.1 10.5 6.5 56 4.2 SE 20 24 11 13 1018.2 - 0.0
29/03:30am 15.9 11.2 6.0 52 4.8 SSE 20 26 11 14 1018.2 - 0.0
29/03:00am 16.4 11.7 6.2 51 5.0 SSE 20 26 11 14 1018.2 1017.8 0.0
29/02:30am 16.8 12.6 5.7 48 5.4 SE 17 22 9 12 1018.5 - 0.0
29/02:00am 17.4 13.5 3.5 39 6.5 SE 13 15 7 8 1018.5 - 0.0
29/01:30am 18.0 13.9 2.3 35 7.2 SE 13 17 7 9 1018.8 - 0.0
29/01:00am 18.0 12.6 -1.3 27 8.2 S 17 20 9 11 1019.1 - 0.0
29/12:30am 18.4 14.4 -2.1 25 8.6 W 9 9 5 5 1019.0 - 0.0
29/12:00am 18.4 14.0 -2.1 25 8.6 WSW 11 13 6 7 1019.0 1018.6 0.0
 
Date/Time
CDT
Temp
°C
App
Temp
°C
Dew
Point
Rel
Hum
%
Delta-T
°C
Wind Press
QNH
hPa
Press
MSL
hPa
Rain
since 9 am
mm
Dir
 
Spd
km/h
Gust
km/h
Spd
kts
Gust
kts
28/11:30pm 20.1 16.7 -0.6 25 9.1 NW 7 9 4 5 1019.0 - 0.0

Other Formats:

Comma delimited format used in spreadsheet applications
http://www.bom.gov.au/fwo/IDS60801/IDS60801.94659.axf

JavaScript Object Notation format (JSON) in row-major order
http://www.bom.gov.au/fwo/IDS60801/IDS60801.94659.json